Terminal Aerodrome Forecast
Issued by NWS Detroit/Pontiac, MI

Current Version | Previous Version | Text Only | Print | Product List | Glossary On
Versions: 1 2 3 4 5 6 7 8 9 10 11 12 13 14 15 16 17 18 19 20
835
FTUS43 KDTX 261739
TAFFNT
TAF
KFNT 261739Z 2618/2718 13008KT 3SM -SHRA BR BKN005 OVC025
     FM262100 16006KT 5SM -SHRA BKN012 OVC025
     FM270200 19005KT 4SM -SHRA BR OVC008
     FM270500 23005KT 4SM BR OVC005
     FM271500 24008KT P6SM BKN015 OVC050=

USA.gov is the U.S. government's official web portal to all federal, state and local government web resources and services.